sensor_id;sensor_type;location;lat;lon;timestamp;P1;durP1;ratioP1;P2;durP2;ratioP2
21251;SDS011;10784;50.578;17.878;2024-02-14T00:02:17;52.40;;;19.58;;
21251;SDS011;10784;50.578;17.878;2024-02-14T00:04:50;35.45;;;14.90;;
21251;SDS011;10784;50.578;17.878;2024-02-14T00:07:23;21.20;;;9.77;;
21251;SDS011;10784;50.578;17.878;2024-02-14T00:09:56;32.05;;;10.65;;
21251;SDS011;10784;50.578;17.878;2024-02-14T00:12:29;25.25;;;11.20;;
21251;SDS011;10784;50.578;17.878;2024-02-14T00:15:02;25.40;;;10.27;;
21251;SDS011;10784;50.578;17.878;2024-02-14T00:17:36;22.42;;;10.60;;
21251;SDS011;10784;50.578;17.878;2024-02-14T00:20:09;22.30;;;11.43;;
21251;SDS011;10784;50.578;17.878;2024-02-14T00:22:45;24.30;;;9.82;;
21251;SDS011;10784;50.578;17.878;2024-02-14T00:25:17;32.78;;;10.77;;
21251;SDS011;10784;50.578;17.878;2024-02-14T00:27:52;26.38;;;11.05;;
21251;SDS011;10784;50.578;17.878;2024-02-14T00:30:26;29.05;;;12.32;;
21251;SDS011;10784;50.578;17.878;2024-02-14T00:33:02;40.47;;;14.50;;
21251;SDS011;10784;50.578;17.878;2024-02-14T00:35:35;42.92;;;17.38;;
21251;SDS011;10784;50.578;17.878;2024-02-14T00:38:08;50.22;;;21.33;;
21251;SDS011;10784;50.578;17.878;2024-02-14T00:40:42;53.72;;;20.67;;
21251;SDS011;10784;50.578;17.878;2024-02-14T00:43:15;39.97;;;17.88;;
21251;SDS011;10784;50.578;17.878;2024-02-14T00:45:47;36.00;;;15.70;;
21251;SDS011;10784;50.578;17.878;2024-02-14T00:48:20;56.60;;;20.65;;
21251;SDS011;10784;50.578;17.878;2024-02-14T00:50:54;43.75;;;19.50;;
21251;SDS011;10784;50.578;17.878;2024-02-14T00:53:27;42.70;;;18.23;;
21251;SDS011;10784;50.578;17.878;2024-02-14T00:55:59;44.47;;;15.43;;
21251;SDS011;10784;50.578;17.878;2024-02-14T00:58:32;30.35;;;12.43;;
21251;SDS011;10784;50.578;17.878;2024-02-14T01:01:05;49.88;;;16.45;;
21251;SDS011;10784;50.578;17.878;2024-02-14T01:03:38;38.65;;;15.02;;
21251;SDS011;10784;50.578;17.878;2024-02-14T01:06:11;33.10;;;12.93;;
21251;SDS011;10784;50.578;17.878;2024-02-14T01:08:44;25.88;;;12.48;;
21251;SDS011;10784;50.578;17.878;2024-02-14T01:11:17;26.05;;;11.75;;
21251;SDS011;10784;50.578;17.878;2024-02-14T01:13:50;21.30;;;9.93;;
21251;SDS011;10784;50.578;17.878;2024-02-14T01:16:24;24.75;;;9.02;;
21251;SDS011;10784;50.578;17.878;2024-02-14T01:18:57;21.27;;;9.57;;
21251;SDS011;10784;50.578;17.878;2024-02-14T01:21:30;22.38;;;10.93;;
21251;SDS011;10784;50.578;17.878;2024-02-14T01:24:03;25.88;;;11.35;;
21251;SDS011;10784;50.578;17.878;2024-02-14T01:26:37;33.92;;;11.98;;
21251;SDS011;10784;50.578;17.878;2024-02-14T01:29:11;25.52;;;10.00;;
21251;SDS011;10784;50.578;17.878;2024-02-14T01:31:44;27.20;;;10.13;;
21251;SDS011;10784;50.578;17.878;2024-02-14T01:34:17;19.77;;;9.07;;
21251;SDS011;10784;50.578;17.878;2024-02-14T01:36:50;34.50;;;11.25;;
21251;SDS011;10784;50.578;17.878;2024-02-14T01:39:23;32.22;;;11.60;;
21251;SDS011;10784;50.578;17.878;2024-02-14T01:41:56;36.95;;;13.13;;
21251;SDS011;10784;50.578;17.878;2024-02-14T01:44:29;29.38;;;11.57;;
21251;SDS011;10784;50.578;17.878;2024-02-14T01:47:02;27.85;;;12.13;;
21251;SDS011;10784;50.578;17.878;2024-02-14T01:49:36;30.38;;;10.77;;
21251;SDS011;10784;50.578;17.878;2024-02-14T01:52:09;26.90;;;10.65;;
21251;SDS011;10784;50.578;17.878;2024-02-14T01:54:43;33.08;;;12.20;;
21251;SDS011;10784;50.578;17.878;2024-02-14T01:57:15;29.13;;;10.98;;
21251;SDS011;10784;50.578;17.878;2024-02-14T01:59:48;27.98;;;11.13;;
21251;SDS011;10784;50.578;17.878;2024-02-14T02:02:22;36.08;;;12.80;;
21251;SDS011;10784;50.578;17.878;2024-02-14T02:04:55;28.50;;;13.07;;
21251;SDS011;10784;50.578;17.878;2024-02-14T02:07:28;27.60;;;11.32;;
21251;SDS011;10784;50.578;17.878;2024-02-14T02:10:03;33.75;;;12.27;;
21251;SDS011;10784;50.578;17.878;2024-02-14T02:12:36;25.58;;;10.93;;
21251;SDS011;10784;50.578;17.878;2024-02-14T02:15:11;27.70;;;12.93;;
21251;SDS011;10784;50.578;17.878;2024-02-14T02:17:47;37.22;;;14.07;;
21251;SDS011;10784;50.578;17.878;2024-02-14T02:20:25;32.92;;;13.80;;
21251;SDS011;10784;50.578;17.878;2024-02-14T02:23:00;38.80;;;15.82;;
21251;SDS011;10784;50.578;17.878;2024-02-14T02:25:33;35.60;;;16.55;;
21251;SDS011;10784;50.578;17.878;2024-02-14T02:28:06;39.17;;;16.08;;
21251;SDS011;10784;50.578;17.878;2024-02-14T02:30:41;39.22;;;15.85;;
21251;SDS011;10784;50.578;17.878;2024-02-14T02:33:14;44.50;;;14.40;;
21251;SDS011;10784;50.578;17.878;2024-02-14T02:35:47;36.03;;;13.80;;
21251;SDS011;10784;50.578;17.878;2024-02-14T02:38:22;35.20;;;13.73;;
21251;SDS011;10784;50.578;17.878;2024-02-14T02:40:55;39.78;;;14.85;;
21251;SDS011;10784;50.578;17.878;2024-02-14T02:43:28;30.00;;;12.15;;
21251;SDS011;10784;50.578;17.878;2024-02-14T02:46:01;33.65;;;12.40;;
21251;SDS011;10784;50.578;17.878;2024-02-14T02:48:34;20.67;;;9.88;;
21251;SDS011;10784;50.578;17.878;2024-02-14T02:51:07;25.00;;;11.25;;
21251;SDS011;10784;50.578;17.878;2024-02-14T02:53:40;28.20;;;10.57;;
21251;SDS011;10784;50.578;17.878;2024-02-14T02:56:13;31.95;;;12.43;;
21251;SDS011;10784;50.578;17.878;2024-02-14T02:58:48;38.70;;;13.32;;
21251;SDS011;10784;50.578;17.878;2024-02-14T03:01:21;30.55;;;13.43;;
21251;SDS011;10784;50.578;17.878;2024-02-14T03:03:56;35.90;;;12.30;;
21251;SDS011;10784;50.578;17.878;2024-02-14T03:06:31;26.52;;;12.43;;
21251;SDS011;10784;50.578;17.878;2024-02-14T03:09:04;25.52;;;10.13;;
21251;SDS011;10784;50.578;17.878;2024-02-14T03:11:38;31.02;;;11.57;;
21251;SDS011;10784;50.578;17.878;2024-02-14T03:14:11;28.88;;;11.30;;
21251;SDS011;10784;50.578;17.878;2024-02-14T03:16:44;40.95;;;13.10;;
21251;SDS011;10784;50.578;17.878;2024-02-14T03:19:17;36.72;;;12.23;;
21251;SDS011;10784;50.578;17.878;2024-02-14T03:21:50;21.80;;;9.00;;
21251;SDS011;10784;50.578;17.878;2024-02-14T03:24:23;25.00;;;9.65;;
21251;SDS011;10784;50.578;17.878;2024-02-14T03:26:59;25.73;;;10.20;;
21251;SDS011;10784;50.578;17.878;2024-02-14T03:29:32;25.85;;;11.25;;
21251;SDS011;10784;50.578;17.878;2024-02-14T03:32:07;25.05;;;10.77;;
21251;SDS011;10784;50.578;17.878;2024-02-14T03:34:40;33.33;;;11.70;;
21251;SDS011;10784;50.578;17.878;2024-02-14T03:37:14;33.50;;;13.35;;
21251;SDS011;10784;50.578;17.878;2024-02-14T03:39:47;39.90;;;11.55;;
21251;SDS011;10784;50.578;17.878;2024-02-14T03:42:20;33.20;;;10.93;;
21251;SDS011;10784;50.578;17.878;2024-02-14T03:44:52;36.75;;;11.07;;
21251;SDS011;10784;50.578;17.878;2024-02-14T03:47:28;38.80;;;11.75;;
21251;SDS011;10784;50.578;17.878;2024-02-14T03:50:02;34.35;;;11.85;;
21251;SDS011;10784;50.578;17.878;2024-02-14T03:52:37;33.25;;;11.95;;
21251;SDS011;10784;50.578;17.878;2024-02-14T03:55:10;30.88;;;10.15;;
21251;SDS011;10784;50.578;17.878;2024-02-14T03:57:46;35.13;;;11.43;;
21251;SDS011;10784;50.578;17.878;2024-02-14T04:00:19;33.83;;;11.40;;
21251;SDS011;10784;50.578;17.878;2024-02-14T04:02:55;29.70;;;11.20;;
21251;SDS011;10784;50.578;17.878;2024-02-14T04:05:32;31.00;;;11.13;;
21251;SDS011;10784;50.578;17.878;2024-02-14T04:08:05;34.75;;;13.20;;
21251;SDS011;10784;50.578;17.878;2024-02-14T04:10:42;52.00;;;14.65;;
21251;SDS011;10784;50.578;17.878;2024-02-14T04:13:16;57.00;;;20.92;;
21251;SDS011;10784;50.578;17.878;2024-02-14T04:15:49;68.60;;;21.25;;
21251;SDS011;10784;50.578;17.878;2024-02-14T04:18:22;55.50;;;19.73;;
21251;SDS011;10784;50.578;17.878;2024-02-14T04:20:55;64.38;;;18.58;;
21251;SDS011;10784;50.578;17.878;2024-02-14T04:23:29;43.00;;;16.38;;
21251;SDS011;10784;50.578;17.878;2024-02-14T04:26:02;43.15;;;14.43;;
21251;SDS011;10784;50.578;17.878;2024-02-14T04:28:35;45.45;;;15.52;;
21251;SDS011;10784;50.578;17.878;2024-02-14T04:31:07;42.38;;;15.43;;
21251;SDS011;10784;50.578;17.878;2024-02-14T04:33:42;49.85;;;16.13;;
21251;SDS011;10784;50.578;17.878;2024-02-14T04:36:17;38.63;;;14.48;;
21251;SDS011;10784;50.578;17.878;2024-02-14T04:38:50;47.85;;;16.55;;
21251;SDS011;10784;50.578;17.878;2024-02-14T04:41:23;45.80;;;16.15;;
21251;SDS011;10784;50.578;17.878;2024-02-14T04:43:56;52.55;;;16.08;;
21251;SDS011;10784;50.578;17.878;2024-02-14T04:46:28;49.03;;;15.75;;
21251;SDS011;10784;50.578;17.878;2024-02-14T04:49:02;60.42;;;20.50;;
21251;SDS011;10784;50.578;17.878;2024-02-14T04:51:38;48.90;;;17.80;;
21251;SDS011;10784;50.578;17.878;2024-02-14T04:54:11;43.28;;;17.85;;
21251;SDS011;10784;50.578;17.878;2024-02-14T04:56:46;47.45;;;15.65;;
21251;SDS011;10784;50.578;17.878;2024-02-14T04:59:23;48.25;;;17.27;;
21251;SDS011;10784;50.578;17.878;2024-02-14T05:01:56;56.53;;;20.27;;
21251;SDS011;10784;50.578;17.878;2024-02-14T05:04:30;53.80;;;17.23;;
21251;SDS011;10784;50.578;17.878;2024-02-14T05:07:04;43.95;;;15.65;;
21251;SDS011;10784;50.578;17.878;2024-02-14T05:09:37;47.50;;;15.75;;
21251;SDS011;10784;50.578;17.878;2024-02-14T05:12:10;69.22;;;16.42;;
21251;SDS011;10784;50.578;17.878;2024-02-14T05:14:43;41.53;;;15.70;;
21251;SDS011;10784;50.578;17.878;2024-02-14T05:17:16;39.58;;;14.90;;
21251;SDS011;10784;50.578;17.878;2024-02-14T05:19:49;48.10;;;17.60;;
21251;SDS011;10784;50.578;17.878;2024-02-14T05:22:22;46.65;;;17.75;;
21251;SDS011;10784;50.578;17.878;2024-02-14T05:24:55;50.25;;;17.55;;
21251;SDS011;10784;50.578;17.878;2024-02-14T05:27:28;52.97;;;21.60;;
21251;SDS011;10784;50.578;17.878;2024-02-14T05:30:01;59.17;;;21.85;;
21251;SDS011;10784;50.578;17.878;2024-02-14T05:32:38;57.25;;;22.95;;
21251;SDS011;10784;50.578;17.878;2024-02-14T05:35:12;52.58;;;22.45;;
21251;SDS011;10784;50.578;17.878;2024-02-14T05:37:45;51.38;;;18.63;;
21251;SDS011;10784;50.578;17.878;2024-02-14T05:40:22;43.65;;;15.60;;
21251;SDS011;10784;50.578;17.878;2024-02-14T05:42:56;46.78;;;16.45;;
21251;SDS011;10784;50.578;17.878;2024-02-14T05:45:30;46.17;;;16.40;;
21251;SDS011;10784;50.578;17.878;2024-02-14T05:48:02;55.35;;;18.52;;
21251;SDS011;10784;50.578;17.878;2024-02-14T05:50:36;52.15;;;18.08;;
21251;SDS011;10784;50.578;17.878;2024-02-14T05:53:09;37.85;;;16.42;;
21251;SDS011;10784;50.578;17.878;2024-02-14T05:55:42;39.85;;;17.92;;
21251;SDS011;10784;50.578;17.878;2024-02-14T05:58:15;45.65;;;15.48;;
21251;SDS011;10784;50.578;17.878;2024-02-14T06:00:48;43.90;;;16.88;;
21251;SDS011;10784;50.578;17.878;2024-02-14T06:03:22;38.15;;;17.25;;
21251;SDS011;10784;50.578;17.878;2024-02-14T06:05:55;48.22;;;16.85;;
21251;SDS011;10784;50.578;17.878;2024-02-14T06:08:28;42.90;;;17.70;;
21251;SDS011;10784;50.578;17.878;2024-02-14T06:11:02;35.70;;;14.80;;
21251;SDS011;10784;50.578;17.878;2024-02-14T06:13:35;47.08;;;17.48;;
21251;SDS011;10784;50.578;17.878;2024-02-14T06:16:12;41.95;;;14.85;;
21251;SDS011;10784;50.578;17.878;2024-02-14T06:18:45;42.83;;;15.45;;
21251;SDS011;10784;50.578;17.878;2024-02-14T06:21:18;43.22;;;17.67;;
21251;SDS011;10784;50.578;17.878;2024-02-14T06:23:52;39.97;;;16.42;;
21251;SDS011;10784;50.578;17.878;2024-02-14T06:26:25;57.45;;;19.00;;
21251;SDS011;10784;50.578;17.878;2024-02-14T06:28:58;51.15;;;17.52;;
21251;SDS011;10784;50.578;17.878;2024-02-14T06:31:32;45.15;;;16.08;;
21251;SDS011;10784;50.578;17.878;2024-02-14T06:34:05;50.13;;;17.52;;
21251;SDS011;10784;50.578;17.878;2024-02-14T06:36:40;45.85;;;18.15;;
21251;SDS011;10784;50.578;17.878;2024-02-14T06:39:13;50.70;;;17.75;;
21251;SDS011;10784;50.578;17.878;2024-02-14T06:41:47;47.60;;;17.10;;
21251;SDS011;10784;50.578;17.878;2024-02-14T06:44:20;51.33;;;16.98;;
21251;SDS011;10784;50.578;17.878;2024-02-14T06:46:53;50.50;;;16.83;;
21251;SDS011;10784;50.578;17.878;2024-02-14T06:49:26;46.05;;;15.52;;
21251;SDS011;10784;50.578;17.878;2024-02-14T06:51:59;37.40;;;14.50;;
21251;SDS011;10784;50.578;17.878;2024-02-14T06:54:32;51.78;;;14.13;;
21251;SDS011;10784;50.578;17.878;2024-02-14T06:57:06;30.70;;;13.60;;
21251;SDS011;10784;50.578;17.878;2024-02-14T06:59:40;28.35;;;12.50;;
21251;SDS011;10784;50.578;17.878;2024-02-14T07:02:13;38.38;;;15.35;;
21251;SDS011;10784;50.578;17.878;2024-02-14T07:04:46;30.27;;;13.38;;
21251;SDS011;10784;50.578;17.878;2024-02-14T07:07:19;43.05;;;15.00;;
21251;SDS011;10784;50.578;17.878;2024-02-14T07:09:52;32.20;;;13.68;;
21251;SDS011;10784;50.578;17.878;2024-02-14T07:12:25;36.38;;;15.20;;
21251;SDS011;10784;50.578;17.878;2024-02-14T07:14:59;35.78;;;15.68;;
21251;SDS011;10784;50.578;17.878;2024-02-14T07:17:32;45.70;;;15.60;;
21251;SDS011;10784;50.578;17.878;2024-02-14T07:20:05;38.00;;;14.35;;
21251;SDS011;10784;50.578;17.878;2024-02-14T07:22:41;47.90;;;16.05;;
21251;SDS011;10784;50.578;17.878;2024-02-14T07:25:14;32.00;;;14.85;;
21251;SDS011;10784;50.578;17.878;2024-02-14T07:27:47;29.23;;;12.38;;
21251;SDS011;10784;50.578;17.878;2024-02-14T07:30:22;36.67;;;13.45;;
21251;SDS011;10784;50.578;17.878;2024-02-14T07:32:55;36.70;;;12.57;;
21251;SDS011;10784;50.578;17.878;2024-02-14T07:35:29;34.03;;;14.60;;
21251;SDS011;10784;50.578;17.878;2024-02-14T07:38:02;27.38;;;11.07;;
21251;SDS011;10784;50.578;17.878;2024-02-14T07:40:35;35.00;;;12.70;;
21251;SDS011;10784;50.578;17.878;2024-02-14T07:43:08;24.95;;;10.63;;
21251;SDS011;10784;50.578;17.878;2024-02-14T07:45:41;25.42;;;9.80;;
21251;SDS011;10784;50.578;17.878;2024-02-14T07:48:14;23.77;;;10.38;;
21251;SDS011;10784;50.578;17.878;2024-02-14T07:50:48;24.65;;;10.55;;
21251;SDS011;10784;50.578;17.878;2024-02-14T07:53:21;27.13;;;10.80;;
21251;SDS011;10784;50.578;17.878;2024-02-14T07:55:54;24.27;;;12.32;;
21251;SDS011;10784;50.578;17.878;2024-02-14T07:58:27;20.10;;;10.23;;
21251;SDS011;10784;50.578;17.878;2024-02-14T08:01:00;26.17;;;9.77;;
21251;SDS011;10784;50.578;17.878;2024-02-14T08:03:33;32.42;;;9.57;;
21251;SDS011;10784;50.578;17.878;2024-02-14T08:06:06;30.83;;;10.68;;
21251;SDS011;10784;50.578;17.878;2024-02-14T08:08:40;20.27;;;9.43;;
21251;SDS011;10784;50.578;17.878;2024-02-14T08:11:13;22.42;;;10.68;;
21251;SDS011;10784;50.578;17.878;2024-02-14T08:13:46;17.77;;;8.52;;
21251;SDS011;10784;50.578;17.878;2024-02-14T08:16:18;21.13;;;9.00;;
21251;SDS011;10784;50.578;17.878;2024-02-14T08:18:51;25.27;;;11.45;;
21251;SDS011;10784;50.578;17.878;2024-02-14T08:21:32;29.35;;;10.38;;
21251;SDS011;10784;50.578;17.878;2024-02-14T08:24:05;22.80;;;10.57;;
21251;SDS011;10784;50.578;17.878;2024-02-14T08:26:38;18.42;;;10.35;;
21251;SDS011;10784;50.578;17.878;2024-02-14T08:29:11;21.75;;;10.77;;
21251;SDS011;10784;50.578;17.878;2024-02-14T08:31:46;21.35;;;11.48;;
21251;SDS011;10784;50.578;17.878;2024-02-14T08:34:20;25.17;;;9.68;;
21251;SDS011;10784;50.578;17.878;2024-02-14T08:36:53;18.45;;;8.77;;
21251;SDS011;10784;50.578;17.878;2024-02-14T08:39:29;23.70;;;10.85;;
21251;SDS011;10784;50.578;17.878;2024-02-14T08:42:02;30.25;;;11.43;;
21251;SDS011;10784;50.578;17.878;2024-02-14T08:44:40;24.48;;;10.73;;
21251;SDS011;10784;50.578;17.878;2024-02-14T08:47:13;27.20;;;11.68;;
21251;SDS011;10784;50.578;17.878;2024-02-14T08:49:46;24.00;;;11.85;;
21251;SDS011;10784;50.578;17.878;2024-02-14T08:52:19;23.83;;;10.27;;
21251;SDS011;10784;50.578;17.878;2024-02-14T08:54:53;19.30;;;9.27;;
21251;SDS011;10784;50.578;17.878;2024-02-14T08:57:26;24.83;;;8.57;;
21251;SDS011;10784;50.578;17.878;2024-02-14T08:59:59;29.23;;;9.68;;
21251;SDS011;10784;50.578;17.878;2024-02-14T09:02:33;31.60;;;10.48;;
21251;SDS011;10784;50.578;17.878;2024-02-14T09:05:07;21.85;;;8.95;;
21251;SDS011;10784;50.578;17.878;2024-02-14T09:07:42;23.50;;;8.77;;
21251;SDS011;10784;50.578;17.878;2024-02-14T09:10:15;26.48;;;7.50;;
21251;SDS011;10784;50.578;17.878;2024-02-14T09:12:48;24.08;;;9.00;;
21251;SDS011;10784;50.578;17.878;2024-02-14T09:15:21;26.98;;;10.63;;
21251;SDS011;10784;50.578;17.878;2024-02-14T09:17:54;19.63;;;7.72;;
21251;SDS011;10784;50.578;17.878;2024-02-14T09:20:28;20.35;;;9.35;;
21251;SDS011;10784;50.578;17.878;2024-02-14T09:23:03;21.67;;;9.38;;
21251;SDS011;10784;50.578;17.878;2024-02-14T09:25:36;23.42;;;9.68;;
21251;SDS011;10784;50.578;17.878;2024-02-14T09:28:08;23.90;;;8.55;;
21251;SDS011;10784;50.578;17.878;2024-02-14T09:30:43;23.63;;;8.60;;
21251;SDS011;10784;50.578;17.878;2024-02-14T09:33:16;21.55;;;9.45;;
21251;SDS011;10784;50.578;17.878;2024-02-14T09:35:49;19.73;;;8.07;;
21251;SDS011;10784;50.578;17.878;2024-02-14T09:38:25;17.50;;;8.07;;
21251;SDS011;10784;50.578;17.878;2024-02-14T09:41:02;19.10;;;9.00;;
21251;SDS011;10784;50.578;17.878;2024-02-14T09:43:38;23.88;;;10.32;;
21251;SDS011;10784;50.578;17.878;2024-02-14T09:46:15;32.15;;;11.63;;
21251;SDS011;10784;50.578;17.878;2024-02-14T09:48:48;31.05;;;11.20;;
21251;SDS011;10784;50.578;17.878;2024-02-14T09:51:22;14.35;;;6.93;;
21251;SDS011;10784;50.578;17.878;2024-02-14T09:53:56;23.67;;;9.65;;
21251;SDS011;10784;50.578;17.878;2024-02-14T09:56:32;18.88;;;7.43;;
21251;SDS011;10784;50.578;17.878;2024-02-14T09:59:05;21.00;;;7.45;;
21251;SDS011;10784;50.578;17.878;2024-02-14T10:01:42;20.23;;;8.00;;
21251;SDS011;10784;50.578;17.878;2024-02-14T10:04:15;17.15;;;6.95;;
21251;SDS011;10784;50.578;17.878;2024-02-14T10:06:50;24.27;;;8.65;;
21251;SDS011;10784;50.578;17.878;2024-02-14T10:09:25;17.10;;;7.57;;
21251;SDS011;10784;50.578;17.878;2024-02-14T10:11:58;20.80;;;8.77;;
21251;SDS011;10784;50.578;17.878;2024-02-14T10:14:31;17.40;;;7.50;;
21251;SDS011;10784;50.578;17.878;2024-02-14T10:17:05;20.77;;;7.25;;
21251;SDS011;10784;50.578;17.878;2024-02-14T10:19:37;17.75;;;6.97;;
21251;SDS011;10784;50.578;17.878;2024-02-14T10:22:14;19.67;;;7.70;;
21251;SDS011;10784;50.578;17.878;2024-02-14T10:24:47;14.27;;;7.20;;
21251;SDS011;10784;50.578;17.878;2024-02-14T10:27:20;18.83;;;7.13;;
21251;SDS011;10784;50.578;17.878;2024-02-14T10:29:55;22.70;;;7.90;;
21251;SDS011;10784;50.578;17.878;2024-02-14T10:32:29;16.70;;;6.90;;
21251;SDS011;10784;50.578;17.878;2024-02-14T10:35:05;22.85;;;7.95;;
21251;SDS011;10784;50.578;17.878;2024-02-14T10:37:41;17.05;;;7.28;;
21251;SDS011;10784;50.578;17.878;2024-02-14T10:40:14;17.60;;;7.70;;
21251;SDS011;10784;50.578;17.878;2024-02-14T10:42:47;20.42;;;7.80;;
21251;SDS011;10784;50.578;17.878;2024-02-14T10:45:20;12.02;;;6.55;;
21251;SDS011;10784;50.578;17.878;2024-02-14T10:47:53;10.68;;;6.80;;
21251;SDS011;10784;50.578;17.878;2024-02-14T10:50:26;21.85;;;8.48;;
21251;SDS011;10784;50.578;17.878;2024-02-14T10:53:03;29.60;;;10.02;;
21251;SDS011;10784;50.578;17.878;2024-02-14T10:55:36;31.80;;;11.32;;
21251;SDS011;10784;50.578;17.878;2024-02-14T10:58:11;18.42;;;8.15;;
21251;SDS011;10784;50.578;17.878;2024-02-14T11:00:44;18.45;;;7.53;;
21251;SDS011;10784;50.578;17.878;2024-02-14T11:03:17;13.15;;;6.78;;
21251;SDS011;10784;50.578;17.878;2024-02-14T11:05:53;17.00;;;7.22;;
21251;SDS011;10784;50.578;17.878;2024-02-14T11:08:28;20.50;;;9.65;;
21251;SDS011;10784;50.578;17.878;2024-02-14T11:11:01;18.52;;;8.88;;
21251;SDS011;10784;50.578;17.878;2024-02-14T11:13:35;21.70;;;9.63;;
21251;SDS011;10784;50.578;17.878;2024-02-14T11:16:08;13.45;;;6.78;;
21251;SDS011;10784;50.578;17.878;2024-02-14T11:18:41;9.15;;;4.07;;
21251;SDS011;10784;50.578;17.878;2024-02-14T11:21:15;13.98;;;4.90;;
21251;SDS011;10784;50.578;17.878;2024-02-14T11:23:52;12.57;;;5.25;;
21251;SDS011;10784;50.578;17.878;2024-02-14T11:26:26;13.52;;;5.00;;
21251;SDS011;10784;50.578;17.878;2024-02-14T11:29:01;14.77;;;4.82;;
21251;SDS011;10784;50.578;17.878;2024-02-14T11:31:36;14.75;;;4.00;;
21251;SDS011;10784;50.578;17.878;2024-02-14T11:34:11;6.95;;;4.50;;
21251;SDS011;10784;50.578;17.878;2024-02-14T11:36:45;18.00;;;5.40;;
21251;SDS011;10784;50.578;17.878;2024-02-14T11:39:18;11.00;;;4.68;;
21251;SDS011;10784;50.578;17.878;2024-02-14T11:41:51;11.10;;;4.97;;
21251;SDS011;10784;50.578;17.878;2024-02-14T11:44:27;11.38;;;5.00;;
21251;SDS011;10784;50.578;17.878;2024-02-14T11:47:02;14.40;;;4.85;;
21251;SDS011;10784;50.578;17.878;2024-02-14T11:49:37;9.63;;;4.47;;
21251;SDS011;10784;50.578;17.878;2024-02-14T11:52:11;5.85;;;3.65;;
21251;SDS011;10784;50.578;17.878;2024-02-14T11:54:47;9.70;;;3.50;;
21251;SDS011;10784;50.578;17.878;2024-02-14T11:57:23;13.55;;;5.00;;
21251;SDS011;10784;50.578;17.878;2024-02-14T11:59:57;14.57;;;4.50;;
21251;SDS011;10784;50.578;17.878;2024-02-14T12:02:30;11.50;;;4.15;;
21251;SDS011;10784;50.578;17.878;2024-02-14T12:05:03;9.13;;;3.67;;
21251;SDS011;10784;50.578;17.878;2024-02-14T12:07:38;14.95;;;4.25;;
21251;SDS011;10784;50.578;17.878;2024-02-14T12:10:11;9.23;;;3.47;;
21251;SDS011;10784;50.578;17.878;2024-02-14T12:12:45;8.57;;;3.47;;
21251;SDS011;10784;50.578;17.878;2024-02-14T12:15:19;8.25;;;3.65;;
21251;SDS011;10784;50.578;17.878;2024-02-14T12:17:54;5.57;;;2.70;;
21251;SDS011;10784;50.578;17.878;2024-02-14T12:20:27;4.32;;;1.88;;
21251;SDS011;10784;50.578;17.878;2024-02-14T12:23:00;4.70;;;2.25;;
21251;SDS011;10784;50.578;17.878;2024-02-14T12:25:33;2.22;;;1.55;;
21251;SDS011;10784;50.578;17.878;2024-02-14T12:28:07;3.88;;;2.10;;
21251;SDS011;10784;50.578;17.878;2024-02-14T12:30:44;8.48;;;2.83;;
21251;SDS011;10784;50.578;17.878;2024-02-14T12:33:21;5.63;;;2.08;;
21251;SDS011;10784;50.578;17.878;2024-02-14T12:35:57;3.88;;;1.73;;
21251;SDS011;10784;50.578;17.878;2024-02-14T12:38:31;11.20;;;2.55;;
21251;SDS011;10784;50.578;17.878;2024-02-14T12:41:05;2.60;;;1.65;;
21251;SDS011;10784;50.578;17.878;2024-02-14T12:43:38;3.03;;;2.15;;
21251;SDS011;10784;50.578;17.878;2024-02-14T12:46:12;2.33;;;1.70;;
21251;SDS011;10784;50.578;17.878;2024-02-14T12:48:45;5.07;;;2.35;;
21251;SDS011;10784;50.578;17.878;2024-02-14T12:51:18;4.95;;;1.92;;
21251;SDS011;10784;50.578;17.878;2024-02-14T12:53:51;7.63;;;2.58;;
21251;SDS011;10784;50.578;17.878;2024-02-14T12:56:24;4.93;;;3.05;;
21251;SDS011;10784;50.578;17.878;2024-02-14T12:58:58;4.15;;;3.13;;
21251;SDS011;10784;50.578;17.878;2024-02-14T13:01:32;5.05;;;2.85;;
21251;SDS011;10784;50.578;17.878;2024-02-14T13:04:05;9.55;;;3.35;;
21251;SDS011;10784;50.578;17.878;2024-02-14T13:06:40;9.45;;;3.55;;
21251;SDS011;10784;50.578;17.878;2024-02-14T13:09:13;5.50;;;2.42;;
21251;SDS011;10784;50.578;17.878;2024-02-14T13:11:48;4.78;;;2.38;;
21251;SDS011;10784;50.578;17.878;2024-02-14T13:14:21;5.05;;;2.95;;
21251;SDS011;10784;50.578;17.878;2024-02-14T13:16:54;6.93;;;2.75;;
21251;SDS011;10784;50.578;17.878;2024-02-14T13:19:27;6.40;;;2.35;;
21251;SDS011;10784;50.578;17.878;2024-02-14T13:22:01;11.70;;;3.65;;
21251;SDS011;10784;50.578;17.878;2024-02-14T13:24:34;5.35;;;2.70;;
21251;SDS011;10784;50.578;17.878;2024-02-14T13:27:08;4.93;;;2.50;;
21251;SDS011;10784;50.578;17.878;2024-02-14T13:29:41;4.57;;;2.10;;
21251;SDS011;10784;50.578;17.878;2024-02-14T13:32:15;6.20;;;2.13;;
21251;SDS011;10784;50.578;17.878;2024-02-14T13:34:47;8.18;;;2.55;;
21251;SDS011;10784;50.578;17.878;2024-02-14T13:37:21;12.80;;;3.67;;
21251;SDS011;10784;50.578;17.878;2024-02-14T13:39:53;9.85;;;3.42;;
21251;SDS011;10784;50.578;17.878;2024-02-14T13:42:26;6.82;;;2.30;;
21251;SDS011;10784;50.578;17.878;2024-02-14T13:44:59;2.88;;;1.90;;
21251;SDS011;10784;50.578;17.878;2024-02-14T13:47:34;4.70;;;2.05;;
21251;SDS011;10784;50.578;17.878;2024-02-14T13:50:12;7.32;;;2.28;;
21251;SDS011;10784;50.578;17.878;2024-02-14T13:52:45;11.35;;;2.78;;
21251;SDS011;10784;50.578;17.878;2024-02-14T13:55:18;7.55;;;2.75;;
21251;SDS011;10784;50.578;17.878;2024-02-14T13:57:51;3.45;;;1.90;;
21251;SDS011;10784;50.578;17.878;2024-02-14T14:00:24;4.95;;;2.45;;
21251;SDS011;10784;50.578;17.878;2024-02-14T14:02:57;10.30;;;2.67;;
21251;SDS011;10784;50.578;17.878;2024-02-14T14:05:30;5.68;;;1.90;;
21251;SDS011;10784;50.578;17.878;2024-02-14T14:08:04;4.47;;;2.30;;
21251;SDS011;10784;50.578;17.878;2024-02-14T14:10:37;4.13;;;2.20;;
21251;SDS011;10784;50.578;17.878;2024-02-14T14:13:10;4.10;;;2.05;;
21251;SDS011;10784;50.578;17.878;2024-02-14T14:15:43;4.65;;;2.65;;
21251;SDS011;10784;50.578;17.878;2024-02-14T14:18:17;6.53;;;2.30;;
21251;SDS011;10784;50.578;17.878;2024-02-14T14:20:50;6.70;;;2.58;;
21251;SDS011;10784;50.578;17.878;2024-02-14T14:23:23;4.60;;;2.22;;
21251;SDS011;10784;50.578;17.878;2024-02-14T14:25:55;5.25;;;2.53;;
21251;SDS011;10784;50.578;17.878;2024-02-14T14:28:29;5.90;;;2.63;;
21251;SDS011;10784;50.578;17.878;2024-02-14T14:31:04;4.07;;;2.20;;
21251;SDS011;10784;50.578;17.878;2024-02-14T14:33:37;3.58;;;1.90;;
21251;SDS011;10784;50.578;17.878;2024-02-14T14:36:15;4.60;;;2.53;;
21251;SDS011;10784;50.578;17.878;2024-02-14T14:38:48;4.57;;;2.17;;
21251;SDS011;10784;50.578;17.878;2024-02-14T14:41:21;5.75;;;2.38;;
21251;SDS011;10784;50.578;17.878;2024-02-14T14:43:54;3.42;;;1.88;;
21251;SDS011;10784;50.578;17.878;2024-02-14T14:46:27;5.80;;;2.58;;
21251;SDS011;10784;50.578;17.878;2024-02-14T14:49:00;6.85;;;2.53;;
21251;SDS011;10784;50.578;17.878;2024-02-14T14:51:33;5.90;;;2.60;;
21251;SDS011;10784;50.578;17.878;2024-02-14T14:54:06;5.78;;;3.30;;